sensor_id;sensor_type;location;lat;lon;timestamp;pressure;altitude;pressure_sealevel;temperature;humidity
70302;BME280;57706;56.326;43.882;2023-04-02T00:07:43;100510.88;;;6.23;72.42
70302;BME280;57706;56.326;43.882;2023-04-02T00:10:35;100522.78;;;6.16;72.63
70302;BME280;57706;56.326;43.882;2023-04-02T00:15:31;100512.34;;;6.16;72.90
70302;BME280;57706;56.326;43.882;2023-04-02T00:17:58;100511.75;;;6.02;73.29
70302;BME280;57706;56.326;43.882;2023-04-02T00:20:25;100519.22;;;6.17;72.99
70302;BME280;57706;56.326;43.882;2023-04-02T00:22:53;100511.28;;;6.18;73.20
70302;BME280;57706;56.326;43.882;2023-04-02T00:25:19;100520.09;;;6.27;72.33
70302;BME280;57706;56.326;43.882;2023-04-02T00:27:45;100511.94;;;6.20;72.92
70302;BME280;57706;56.326;43.882;2023-04-02T00:30:12;100520.19;;;6.16;72.95
70302;BME280;57706;56.326;43.882;2023-04-02T00:32:38;100516.78;;;6.25;73.00
70302;BME280;57706;56.326;43.882;2023-04-02T00:35:16;100524.09;;;6.31;72.69
70302;BME280;57706;56.326;43.882;2023-04-02T00:37:43;100517.34;;;6.29;72.81
70302;BME280;57706;56.326;43.882;2023-04-02T00:40:22;100519.53;;;6.24;73.01
70302;BME280;57706;56.326;43.882;2023-04-02T00:42:49;100518.97;;;6.20;73.07
70302;BME280;57706;56.326;43.882;2023-04-02T00:45:30;100520.28;;;6.04;73.69
70302;BME280;57706;56.326;43.882;2023-04-02T00:47:59;100523.47;;;6.18;73.36
70302;BME280;57706;56.326;43.882;2023-04-02T00:50:41;100534.09;;;6.26;72.95
70302;BME280;57706;56.326;43.882;2023-04-02T00:53:21;100523.56;;;6.38;72.67
70302;BME280;57706;56.326;43.882;2023-04-02T00:55:48;100526.63;;;6.12;73.37
70302;BME280;57706;56.326;43.882;2023-04-02T00:58:26;100522.63;;;6.39;72.45
70302;BME280;57706;56.326;43.882;2023-04-02T01:00:52;100528.34;;;6.32;72.52
70302;BME280;57706;56.326;43.882;2023-04-02T01:05:46;100541.50;;;6.21;72.89
70302;BME280;57706;56.326;43.882;2023-04-02T01:15:54;100559.56;;;6.34;72.49
70302;BME280;57706;56.326;43.882;2023-04-02T01:24:02;100556.38;;;6.30;72.30
70302;BME280;57706;56.326;43.882;2023-04-02T01:29:30;100570.91;;;6.23;72.75
70302;BME280;57706;56.326;43.882;2023-04-02T01:32:04;100565.22;;;6.18;73.16
70302;BME280;57706;56.326;43.882;2023-04-02T01:34:31;100564.44;;;6.49;71.68
70302;BME280;57706;56.326;43.882;2023-04-02T01:37:19;100566.91;;;6.50;72.18
70302;BME280;57706;56.326;43.882;2023-04-02T01:42:51;100570.28;;;6.72;71.21
70302;BME280;57706;56.326;43.882;2023-04-02T01:45:22;100574.66;;;6.61;71.32
70302;BME280;57706;56.326;43.882;2023-04-02T01:47:49;100567.97;;;6.38;72.25
70302;BME280;57706;56.326;43.882;2023-04-02T01:50:28;100583.31;;;6.31;72.70
70302;BME280;57706;56.326;43.882;2023-04-02T01:53:06;100580.63;;;6.42;72.09
70302;BME280;57706;56.326;43.882;2023-04-02T01:58:00;100580.88;;;6.18;73.14
70302;BME280;57706;56.326;43.882;2023-04-02T02:00:28;100581.25;;;6.03;73.91
70302;BME280;57706;56.326;43.882;2023-04-02T02:02:55;100586.66;;;6.43;72.65
70302;BME280;57706;56.326;43.882;2023-04-02T02:05:23;100586.97;;;6.50;72.25
70302;BME280;57706;56.326;43.882;2023-04-02T02:07:53;100586.28;;;6.26;73.15
70302;BME280;57706;56.326;43.882;2023-04-02T02:10:37;100589.00;;;6.15;73.70
70302;BME280;57706;56.326;43.882;2023-04-02T02:13:04;100583.78;;;6.15;74.13
70302;BME280;57706;56.326;43.882;2023-04-02T02:15:32;100573.06;;;6.18;74.00
70302;BME280;57706;56.326;43.882;2023-04-02T02:18:03;100582.38;;;6.11;74.48
70302;BME280;57706;56.326;43.882;2023-04-02T02:20:31;100580.19;;;6.16;74.22
70302;BME280;57706;56.326;43.882;2023-04-02T02:22:58;100580.38;;;6.24;73.72
70302;BME280;57706;56.326;43.882;2023-04-02T02:25:28;100591.72;;;6.13;74.29
70302;BME280;57706;56.326;43.882;2023-04-02T02:28:02;100600.56;;;6.22;74.39
70302;BME280;57706;56.326;43.882;2023-04-02T02:30:43;100588.56;;;6.41;73.56
70302;BME280;57706;56.326;43.882;2023-04-02T02:33:24;100593.56;;;6.44;73.16
70302;BME280;57706;56.326;43.882;2023-04-02T02:41:32;100605.91;;;6.20;74.55
70302;BME280;57706;56.326;43.882;2023-04-02T02:46:44;100610.84;;;6.14;74.64
70302;BME280;57706;56.326;43.882;2023-04-02T02:49:17;100611.47;;;6.27;74.52
70302;BME280;57706;56.326;43.882;2023-04-02T02:51:57;100616.59;;;6.39;74.04
70302;BME280;57706;56.326;43.882;2023-04-02T02:54:32;100616.00;;;6.56;73.35
70302;BME280;57706;56.326;43.882;2023-04-02T02:57:02;100620.94;;;6.59;73.24
70302;BME280;57706;56.326;43.882;2023-04-02T02:59:29;100619.22;;;6.70;72.92
70302;BME280;57706;56.326;43.882;2023-04-02T03:01:57;100622.66;;;6.70;72.95
70302;BME280;57706;56.326;43.882;2023-04-02T03:04:24;100621.97;;;6.68;73.01
70302;BME280;57706;56.326;43.882;2023-04-02T03:06:54;100620.09;;;6.80;72.47
70302;BME280;57706;56.326;43.882;2023-04-02T03:09:27;100622.25;;;6.75;72.59
70302;BME280;57706;56.326;43.882;2023-04-02T03:20:55;100632.97;;;6.72;73.31
70302;BME280;57706;56.326;43.882;2023-04-02T03:23:40;100625.94;;;6.63;73.73
70302;BME280;57706;56.326;43.882;2023-04-02T03:26:21;100630.25;;;6.73;73.31
70302;BME280;57706;56.326;43.882;2023-04-02T03:29:15;100627.13;;;6.58;73.70
70302;BME280;57706;56.326;43.882;2023-04-02T03:31:43;100623.13;;;6.85;73.02
70302;BME280;57706;56.326;43.882;2023-04-02T03:34:21;100635.59;;;6.72;73.20
70302;BME280;57706;56.326;43.882;2023-04-02T03:36:59;100640.19;;;6.89;72.63
70302;BME280;57706;56.326;43.882;2023-04-02T03:42:01;100646.91;;;6.82;72.89
70302;BME280;57706;56.326;43.882;2023-04-02T03:47:27;100631.91;;;6.84;73.05
70302;BME280;57706;56.326;43.882;2023-04-02T03:50:02;100644.22;;;6.94;72.86
70302;BME280;57706;56.326;43.882;2023-04-02T03:52:34;100646.53;;;6.97;72.71
70302;BME280;57706;56.326;43.882;2023-04-02T03:55:10;100647.03;;;7.22;71.30
70302;BME280;57706;56.326;43.882;2023-04-02T04:00:38;100648.00;;;7.21;71.57
70302;BME280;57706;56.326;43.882;2023-04-02T04:03:14;100649.25;;;7.36;70.94
70302;BME280;57706;56.326;43.882;2023-04-02T04:05:50;100648.31;;;7.37;70.77
70302;BME280;57706;56.326;43.882;2023-04-02T04:08:23;100651.75;;;7.48;70.48
70302;BME280;57706;56.326;43.882;2023-04-02T04:10:52;100646.53;;;7.48;69.98
70302;BME280;57706;56.326;43.882;2023-04-02T04:13:27;100651.00;;;7.26;70.99
70302;BME280;57706;56.326;43.882;2023-04-02T04:21:10;100663.03;;;7.58;69.46
70302;BME280;57706;56.326;43.882;2023-04-02T04:23:39;100660.44;;;7.58;69.46
70302;BME280;57706;56.326;43.882;2023-04-02T04:26:20;100663.97;;;7.27;70.66
70302;BME280;57706;56.326;43.882;2023-04-02T04:29:38;100671.88;;;7.06;71.65
70302;BME280;57706;56.326;43.882;2023-04-02T04:34:16;100664.16;;;7.46;69.81
70302;BME280;57706;56.326;43.882;2023-04-02T04:36:50;100672.25;;;7.42;70.12
70302;BME280;57706;56.326;43.882;2023-04-02T04:39:32;100669.28;;;7.77;68.83
70302;BME280;57706;56.326;43.882;2023-04-02T04:42:02;100670.22;;;7.76;68.79
70302;BME280;57706;56.326;43.882;2023-04-02T04:47:27;100666.22;;;7.91;68.18
70302;BME280;57706;56.326;43.882;2023-04-02T04:50:19;100671.19;;;7.75;68.40
70302;BME280;57706;56.326;43.882;2023-04-02T04:52:51;100667.06;;;7.92;68.19
70302;BME280;57706;56.326;43.882;2023-04-02T04:57:54;100664.56;;;7.90;68.12
70302;BME280;57706;56.326;43.882;2023-04-02T05:00:22;100675.88;;;8.01;67.82
70302;BME280;57706;56.326;43.882;2023-04-02T05:05:44;100690.47;;;7.74;68.76
70302;BME280;57706;56.326;43.882;2023-04-02T05:08:18;100694.19;;;7.61;68.96
70302;BME280;57706;56.326;43.882;2023-04-02T05:10:50;100714.41;;;7.59;69.49
70302;BME280;57706;56.326;43.882;2023-04-02T05:13:24;100700.63;;;7.57;69.13
70302;BME280;57706;56.326;43.882;2023-04-02T05:16:04;100697.97;;;7.37;70.24
70302;BME280;57706;56.326;43.882;2023-04-02T05:18:43;100690.16;;;7.57;69.74
70302;BME280;57706;56.326;43.882;2023-04-02T05:21:25;100695.44;;;7.77;68.96
70302;BME280;57706;56.326;43.882;2023-04-02T05:30:08;100713.03;;;7.75;69.00
70302;BME280;57706;56.326;43.882;2023-04-02T05:32:41;100702.19;;;7.89;68.06
70302;BME280;57706;56.326;43.882;2023-04-02T05:35:14;100709.50;;;7.95;68.14
70302;BME280;57706;56.326;43.882;2023-04-02T05:37:41;100707.56;;;7.97;68.02
70302;BME280;57706;56.326;43.882;2023-04-02T05:40:22;100708.66;;;8.05;68.09
70302;BME280;57706;56.326;43.882;2023-04-02T05:42:50;100701.78;;;8.04;68.11
70302;BME280;57706;56.326;43.882;2023-04-02T05:45:34;100713.19;;;7.83;68.86
70302;BME280;57706;56.326;43.882;2023-04-02T05:48:11;100714.19;;;8.02;68.60
70302;BME280;57706;56.326;43.882;2023-04-02T05:50:43;100718.84;;;8.08;68.30
70302;BME280;57706;56.326;43.882;2023-04-02T05:53:38;100711.84;;;8.08;68.15
70302;BME280;57706;56.326;43.882;2023-04-02T05:56:18;100714.16;;;8.11;67.77
70302;BME280;57706;56.326;43.882;2023-04-02T05:58:53;100708.78;;;8.33;67.25
70302;BME280;57706;56.326;43.882;2023-04-02T06:01:47;100721.03;;;8.42;66.64
70302;BME280;57706;56.326;43.882;2023-04-02T06:04:49;100732.09;;;8.36;67.05
70302;BME280;57706;56.326;43.882;2023-04-02T06:12:42;100734.00;;;8.44;66.74
70302;BME280;57706;56.326;43.882;2023-04-02T06:15:16;100739.22;;;8.34;67.23
70302;BME280;57706;56.326;43.882;2023-04-02T06:17:51;100744.72;;;8.50;66.49
70302;BME280;57706;56.326;43.882;2023-04-02T06:20:19;100738.34;;;8.82;65.70
70302;BME280;57706;56.326;43.882;2023-04-02T06:22:52;100743.53;;;8.54;66.20
70302;BME280;57706;56.326;43.882;2023-04-02T06:27:50;100741.16;;;8.71;65.72
70302;BME280;57706;56.326;43.882;2023-04-02T06:30:27;100738.41;;;8.23;67.18
70302;BME280;57706;56.326;43.882;2023-04-02T06:32:56;100745.56;;;8.41;66.88
70302;BME280;57706;56.326;43.882;2023-04-02T06:35:23;100760.34;;;8.62;65.97
70302;BME280;57706;56.326;43.882;2023-04-02T06:38:03;100755.22;;;8.70;65.74
70302;BME280;57706;56.326;43.882;2023-04-02T06:46:47;100766.94;;;8.07;67.92
70302;BME280;57706;56.326;43.882;2023-04-02T06:49:20;100769.41;;;7.98;68.06
70302;BME280;57706;56.326;43.882;2023-04-02T06:51:53;100769.84;;;8.04;68.21
70302;BME280;57706;56.326;43.882;2023-04-02T06:54:20;100768.19;;;8.12;67.79
70302;BME280;57706;56.326;43.882;2023-04-02T06:56:51;100760.31;;;8.42;66.76
70302;BME280;57706;56.326;43.882;2023-04-02T06:59:28;100769.03;;;8.52;66.31
70302;BME280;57706;56.326;43.882;2023-04-02T07:02:04;100777.56;;;8.35;66.94
70302;BME280;57706;56.326;43.882;2023-04-02T07:04:41;100780.31;;;8.33;67.10
70302;BME280;57706;56.326;43.882;2023-04-02T07:07:07;100769.44;;;8.58;66.23
70302;BME280;57706;56.326;43.882;2023-04-02T07:09:36;100769.59;;;8.56;66.70
70302;BME280;57706;56.326;43.882;2023-04-02T07:12:11;100771.72;;;8.90;65.73
70302;BME280;57706;56.326;43.882;2023-04-02T07:14:37;100763.97;;;8.99;64.67
70302;BME280;57706;56.326;43.882;2023-04-02T07:17:03;100757.88;;;9.36;63.38
70302;BME280;57706;56.326;43.882;2023-04-02T07:19:29;100771.84;;;9.36;63.14
70302;BME280;57706;56.326;43.882;2023-04-02T07:21:57;100768.41;;;9.82;61.84
70302;BME280;57706;56.326;43.882;2023-04-02T07:24:28;100765.66;;;10.02;61.06
70302;BME280;57706;56.326;43.882;2023-04-02T07:26:54;100759.78;;;10.08;60.07
70302;BME280;57706;56.326;43.882;2023-04-02T07:29:20;100769.47;;;9.71;61.17
70302;BME280;57706;56.326;43.882;2023-04-02T07:31:46;100772.69;;;9.83;60.98
70302;BME280;57706;56.326;43.882;2023-04-02T07:34:12;100768.50;;;9.90;60.99
70302;BME280;57706;56.326;43.882;2023-04-02T07:36:38;100765.03;;;10.08;60.11
70302;BME280;57706;56.326;43.882;2023-04-02T07:39:04;100781.47;;;9.92;60.30
70302;BME280;57706;56.326;43.882;2023-04-02T07:41:29;100773.19;;;9.69;61.08
70302;BME280;57706;56.326;43.882;2023-04-02T07:43:55;100771.56;;;9.86;60.41
70302;BME280;57706;56.326;43.882;2023-04-02T07:46:21;100773.38;;;9.85;60.78
70302;BME280;57706;56.326;43.882;2023-04-02T07:48:47;100786.50;;;9.85;59.97
70302;BME280;57706;56.326;43.882;2023-04-02T07:51:24;100787.56;;;9.93;59.69
70302;BME280;57706;56.326;43.882;2023-04-02T07:53:51;100789.53;;;9.62;60.95
70302;BME280;57706;56.326;43.882;2023-04-02T07:56:22;100797.97;;;9.56;60.93
70302;BME280;57706;56.326;43.882;2023-04-02T07:58:48;100790.69;;;9.78;60.53
70302;BME280;57706;56.326;43.882;2023-04-02T08:01:25;100787.22;;;9.59;60.61
70302;BME280;57706;56.326;43.882;2023-04-02T08:03:55;100784.16;;;9.82;60.30
70302;BME280;57706;56.326;43.882;2023-04-02T08:06:23;100777.06;;;10.29;58.64
70302;BME280;57706;56.326;43.882;2023-04-02T08:08:49;100781.25;;;9.85;59.87
70302;BME280;57706;56.326;43.882;2023-04-02T08:11:15;100779.59;;;9.84;59.85
70302;BME280;57706;56.326;43.882;2023-04-02T08:13:42;100786.91;;;10.09;59.28
70302;BME280;57706;56.326;43.882;2023-04-02T08:16:08;100784.69;;;10.40;58.20
70302;BME280;57706;56.326;43.882;2023-04-02T08:18:34;100788.84;;;10.25;58.60
70302;BME280;57706;56.326;43.882;2023-04-02T08:21:01;100803.91;;;9.86;59.02
70302;BME280;57706;56.326;43.882;2023-04-02T08:23:31;100793.22;;;9.70;59.83
70302;BME280;57706;56.326;43.882;2023-04-02T08:25:56;100794.28;;;9.95;59.42
70302;BME280;57706;56.326;43.882;2023-04-02T08:28:22;100797.38;;;9.72;60.54
70302;BME280;57706;56.326;43.882;2023-04-02T08:30:48;100804.22;;;9.45;60.85
70302;BME280;57706;56.326;43.882;2023-04-02T08:33:15;100815.44;;;9.47;60.81
70302;BME280;57706;56.326;43.882;2023-04-02T08:35:46;100806.72;;;9.09;62.08
70302;BME280;57706;56.326;43.882;2023-04-02T08:38:16;100800.91;;;9.15;61.73
70302;BME280;57706;56.326;43.882;2023-04-02T08:40:45;100798.66;;;9.20;61.90
70302;BME280;57706;56.326;43.882;2023-04-02T08:48:31;100808.94;;;9.04;63.17
70302;BME280;57706;56.326;43.882;2023-04-02T08:50:59;100805.31;;;9.15;62.93
70302;BME280;57706;56.326;43.882;2023-04-02T08:53:36;100814.47;;;9.01;63.66
70302;BME280;57706;56.326;43.882;2023-04-02T08:58:55;100817.31;;;9.27;61.89
70302;BME280;57706;56.326;43.882;2023-04-02T09:01:51;100815.53;;;9.18;62.04
70302;BME280;57706;56.326;43.882;2023-04-02T09:04:22;100821.50;;;9.00;62.46
70302;BME280;57706;56.326;43.882;2023-04-02T09:06:51;100822.34;;;8.91;63.28
70302;BME280;57706;56.326;43.882;2023-04-02T09:09:18;100820.44;;;8.93;63.63
70302;BME280;57706;56.326;43.882;2023-04-02T09:14:16;100821.97;;;8.66;64.35
70302;BME280;57706;56.326;43.882;2023-04-02T09:16:54;100809.66;;;9.44;61.87
70302;BME280;57706;56.326;43.882;2023-04-02T09:24:31;100811.56;;;9.42;61.79
70302;BME280;57706;56.326;43.882;2023-04-02T09:26:57;100819.28;;;9.53;61.22
70302;BME280;57706;56.326;43.882;2023-04-02T09:29:43;100827.72;;;8.99;63.21
70302;BME280;57706;56.326;43.882;2023-04-02T09:32:35;100818.66;;;8.64;64.54
70302;BME280;57706;56.326;43.882;2023-04-02T09:35:06;100820.59;;;8.52;64.37
70302;BME280;57706;56.326;43.882;2023-04-02T09:37:32;100818.38;;;8.87;63.55
70302;BME280;57706;56.326;43.882;2023-04-02T09:40:30;100816.13;;;9.02;63.16
70302;BME280;57706;56.326;43.882;2023-04-02T09:45:28;100826.84;;;9.08;62.57
70302;BME280;57706;56.326;43.882;2023-04-02T09:47:54;100804.09;;;9.47;61.60
70302;BME280;57706;56.326;43.882;2023-04-02T09:50:32;100826.63;;;9.40;61.75
70302;BME280;57706;56.326;43.882;2023-04-02T09:53:23;100818.53;;;9.23;62.27
70302;BME280;57706;56.326;43.882;2023-04-02T09:56:10;100817.13;;;9.39;62.22
70302;BME280;57706;56.326;43.882;2023-04-02T09:58:37;100821.41;;;9.68;61.17
70302;BME280;57706;56.326;43.882;2023-04-02T10:01:03;100828.47;;;9.29;62.37
70302;BME280;57706;56.326;43.882;2023-04-02T10:03:33;100839.03;;;8.90;63.92
70302;BME280;57706;56.326;43.882;2023-04-02T10:06:08;100829.41;;;8.71;64.47
70302;BME280;57706;56.326;43.882;2023-04-02T10:08:34;100833.38;;;9.04;63.42
70302;BME280;57706;56.326;43.882;2023-04-02T10:11:03;100831.91;;;8.72;64.70
70302;BME280;57706;56.326;43.882;2023-04-02T10:13:37;100838.13;;;8.81;64.01
70302;BME280;57706;56.326;43.882;2023-04-02T10:16:10;100844.03;;;8.83;63.93
70302;BME280;57706;56.326;43.882;2023-04-02T10:18:38;100842.50;;;8.80;64.09
70302;BME280;57706;56.326;43.882;2023-04-02T10:21:07;100844.72;;;8.75;64.25
70302;BME280;57706;56.326;43.882;2023-04-02T10:23:34;100847.31;;;8.95;63.74
70302;BME280;57706;56.326;43.882;2023-04-02T10:26:34;100850.09;;;8.84;63.72
70302;BME280;57706;56.326;43.882;2023-04-02T10:32:05;100839.09;;;9.66;60.22
70302;BME280;57706;56.326;43.882;2023-04-02T10:46:01;100844.22;;;9.57;60.34
70302;BME280;57706;56.326;43.882;2023-04-02T10:51:11;100842.97;;;9.89;59.58
70302;BME280;57706;56.326;43.882;2023-04-02T10:53:48;100838.94;;;9.95;59.35
70302;BME280;57706;56.326;43.882;2023-04-02T10:56:17;100842.66;;;10.21;58.89
70302;BME280;57706;56.326;43.882;2023-04-02T10:58:59;100834.38;;;9.69;60.57
70302;BME280;57706;56.326;43.882;2023-04-02T11:01:29;100841.91;;;10.10;58.82
70302;BME280;57706;56.326;43.882;2023-04-02T11:04:00;100838.75;;;10.25;58.82
70302;BME280;57706;56.326;43.882;2023-04-02T11:06:32;100834.13;;;10.55;57.73
70302;BME280;57706;56.326;43.882;2023-04-02T11:09:04;100835.06;;;10.36;58.64
70302;BME280;57706;56.326;43.882;2023-04-02T11:11:42;100841.13;;;10.00;59.15
70302;BME280;57706;56.326;43.882;2023-04-02T11:14:19;100839.53;;;9.23;61.83
70302;BME280;57706;56.326;43.882;2023-04-02T11:16:51;100835.34;;;9.40;61.14
70302;BME280;57706;56.326;43.882;2023-04-02T11:32:26;100851.09;;;9.68;60.58
70302;BME280;57706;56.326;43.882;2023-04-02T11:42:35;100857.97;;;9.51;60.16
70302;BME280;57706;56.326;43.882;2023-04-02T11:50:28;100850.09;;;9.41;61.11
70302;BME280;57706;56.326;43.882;2023-04-02T11:52:58;100854.63;;;9.49;60.61
70302;BME280;57706;56.326;43.882;2023-04-02T11:55:29;100852.63;;;9.23;61.39
70302;BME280;57706;56.326;43.882;2023-04-02T12:09:27;100856.78;;;9.16;62.33
70302;BME280;57706;56.326;43.882;2023-04-02T12:11:58;100858.59;;;9.15;61.98
70302;BME280;57706;56.326;43.882;2023-04-02T12:17:04;100857.81;;;8.75;63.11
70302;BME280;57706;56.326;43.882;2023-04-02T12:19:38;100862.09;;;9.06;62.09
70302;BME280;57706;56.326;43.882;2023-04-02T12:22:04;100858.41;;;8.69;63.10
70302;BME280;57706;56.326;43.882;2023-04-02T12:24:30;100861.28;;;8.66;63.31
70302;BME280;57706;56.326;43.882;2023-04-02T12:27:16;100861.69;;;8.71;63.50
70302;BME280;57706;56.326;43.882;2023-04-02T12:29:42;100863.47;;;8.90;62.57
70302;BME280;57706;56.326;43.882;2023-04-02T12:32:27;100866.91;;;8.91;62.53
70302;BME280;57706;56.326;43.882;2023-04-02T12:34:55;100853.09;;;9.08;62.16
70302;BME280;57706;56.326;43.882;2023-04-02T12:37:27;100860.69;;;8.92;62.36
70302;BME280;57706;56.326;43.882;2023-04-02T12:39:58;100854.38;;;8.85;62.87
70302;BME280;57706;56.326;43.882;2023-04-02T12:42:28;100849.81;;;8.87;62.92
70302;BME280;57706;56.326;43.882;2023-04-02T12:44:55;100849.53;;;8.90;62.61
70302;BME280;57706;56.326;43.882;2023-04-02T12:47:21;100842.94;;;8.76;63.25
70302;BME280;57706;56.326;43.882;2023-04-02T12:49:47;100858.25;;;8.90;62.73
70302;BME280;57706;56.326;43.882;2023-04-02T12:52:16;100853.25;;;8.97;62.55
70302;BME280;57706;56.326;43.882;2023-04-02T12:54:51;100848.19;;;8.56;64.22
70302;BME280;57706;56.326;43.882;2023-04-02T12:59:59;100852.59;;;8.56;64.38
70302;BME280;57706;56.326;43.882;2023-04-02T13:02:32;100861.69;;;8.51;64.52
70302;BME280;57706;56.326;43.882;2023-04-02T13:05:08;100857.28;;;8.62;64.13
70302;BME280;57706;56.326;43.882;2023-04-02T13:07:34;100859.72;;;8.44;64.67
70302;BME280;57706;56.326;43.882;2023-04-02T13:10:03;100868.28;;;8.75;63.63
70302;BME280;57706;56.326;43.882;2023-04-02T13:12:39;100860.88;;;8.51;64.56
70302;BME280;57706;56.326;43.882;2023-04-02T13:15:08;100868.81;;;8.49;64.41
70302;BME280;57706;56.326;43.882;2023-04-02T13:17:47;100869.78;;;8.48;64.65
70302;BME280;57706;56.326;43.882;2023-04-02T13:22:58;100852.56;;;8.75;63.72
70302;BME280;57706;56.326;43.882;2023-04-02T13:25:30;100858.53;;;8.67;63.93
70302;BME280;57706;56.326;43.882;2023-04-02T13:27:56;100863.63;;;8.69;64.09
70302;BME280;57706;56.326;43.882;2023-04-02T13:30:25;100862.16;;;8.25;65.37
70302;BME280;57706;56.326;43.882;2023-04-02T13:32:51;100870.47;;;8.31;64.42
70302;BME280;57706;56.326;43.882;2023-04-02T13:35:16;100863.72;;;8.38;63.68
70302;BME280;57706;56.326;43.882;2023-04-02T13:37:42;100869.94;;;8.37;63.66
70302;BME280;57706;56.326;43.882;2023-04-02T13:40:12;100865.22;;;8.31;63.77
70302;BME280;57706;56.326;43.882;2023-04-02T13:42:41;100861.91;;;8.19;64.42
70302;BME280;57706;56.326;43.882;2023-04-02T13:47:50;100866.94;;;8.51;63.10
70302;BME280;57706;56.326;43.882;2023-04-02T13:50:18;100861.84;;;8.60;62.93
70302;BME280;57706;56.326;43.882;2023-04-02T13:52:45;100863.06;;;8.56;63.08
70302;BME280;57706;56.326;43.882;2023-04-02T13:55:13;100854.25;;;8.57;62.89
70302;BME280;57706;56.326;43.882;2023-04-02T13:57:39;100847.34;;;8.56;62.74
70302;BME280;57706;56.326;43.882;2023-04-02T14:00:06;100854.53;;;8.63;62.27
70302;BME280;57706;56.326;43.882;2023-04-02T14:02:32;100856.59;;;8.60;62.64
70302;BME280;57706;56.326;43.882;2023-04-02T14:19:02;100852.94;;;9.10;60.92
70302;BME280;57706;56.326;43.882;2023-04-02T14:21:51;100843.53;;;9.27;60.45
70302;BME280;57706;56.326;43.882;2023-04-02T14:35:43;100849.22;;;9.13;60.45
70302;BME280;57706;56.326;43.882;2023-04-02T14:40:48;100847.59;;;8.92;61.63
70302;BME280;57706;56.326;43.882;2023-04-02T14:43:32;100850.09;;;8.84;62.00
70302;BME280;57706;56.326;43.882;2023-04-02T14:46:06;100841.28;;;8.65;62.42
70302;BME280;57706;56.326;43.882;2023-04-02T14:51:38;100845.81;;;8.43;63.18
70302;BME280;57706;56.326;43.882;2023-04-02T14:54:21;100844.41;;;8.19;63.95
70302;BME280;57706;56.326;43.882;2023-04-02T14:56:52;100844.78;;;8.05;64.65
70302;BME280;57706;56.326;43.882;2023-04-02T15:02:06;100842.25;;;7.83;65.97
70302;BME280;57706;56.326;43.882;2023-04-02T15:04:39;100844.47;;;7.88;65.55
70302;BME280;57706;56.326;43.882;2023-04-02T15:07:17;100837.50;;;7.67;66.50
70302;BME280;57706;56.326;43.882;2023-04-02T15:09:50;100844.66;;;7.55;66.76
70302;BME280;57706;56.326;43.882;2023-04-02T15:12:21;100850.97;;;7.53;67.18
70302;BME280;57706;56.326;43.882;2023-04-02T15:15:07;100847.28;;;7.34;67.92
70302;BME280;57706;56.326;43.882;2023-04-02T15:17:39;100841.25;;;7.34;67.62
70302;BME280;57706;56.326;43.882;2023-04-02T15:20:16;100847.28;;;7.34;67.83
70302;BME280;57706;56.326;43.882;2023-04-02T15:23:11;100852.78;;;7.31;67.89
70302;BME280;57706;56.326;43.882;2023-04-02T15:28:24;100853.94;;;6.96;68.88
70302;BME280;57706;56.326;43.882;2023-04-02T15:30:55;100846.41;;;6.81;69.70
70302;BME280;57706;56.326;43.882;2023-04-02T15:38:44;100852.66;;;6.69;70.95
70302;BME280;57706;56.326;43.882;2023-04-02T15:41:22;100852.25;;;6.52;70.65
70302;BME280;57706;56.326;43.882;2023-04-02T15:44:12;100848.28;;;6.37;71.80
70302;BME280;57706;56.326;43.882;2023-04-02T15:46:53;100849.13;;;6.26;72.29
70302;BME280;57706;56.326;43.882;2023-04-02T15:52:52;100846.41;;;6.16;73.24
70302;BME280;57706;56.326;43.882;2023-04-02T15:57:44;100853.56;;;6.02;73.50
70302;BME280;57706;56.326;43.882;2023-04-02T16:00:55;100858.06;;;5.89;73.61
70302;BME280;57706;56.326;43.882;2023-04-02T16:11:33;100860.91;;;5.74;74.20
70302;BME280;57706;56.326;43.882;2023-04-02T16:14:16;100860.44;;;5.69;74.55
70302;BME280;57706;56.326;43.882;2023-04-02T16:16:46;100862.09;;;5.59;74.74
70302;BME280;57706;56.326;43.882;2023-04-02T16:19:33;100859.97;;;5.53;74.85
70302;BME280;57706;56.326;43.882;2023-04-02T16:22:02;100851.91;;;5.44;75.14
70302;BME280;57706;56.326;43.882;2023-04-02T16:24:30;100857.13;;;5.44;75.49
70302;BME280;57706;56.326;43.882;2023-04-02T16:29:54;100861.16;;;5.37;75.84
70302;BME280;57706;56.326;43.882;2023-04-02T16:35:22;100862.81;;;5.38;76.22
70302;BME280;57706;56.326;43.882;2023-04-02T16:54:47;100873.19;;;5.15;77.85
70302;BME280;57706;56.326;43.882;2023-04-02T16:59:56;100868.41;;;5.09;77.52
70302;BME280;57706;56.326;43.882;2023-04-02T17:02:36;100870.31;;;5.07;78.39
70302;BME280;57706;56.326;43.882;2023-04-02T17:05:31;100857.09;;;5.21;77.83
70302;BME280;57706;56.326;43.882;2023-04-02T17:08:21;100859.91;;;5.18;77.87
70302;BME280;57706;56.326;43.882;2023-04-02T17:11:22;100864.50;;;5.03;78.08
70302;BME280;57706;56.326;43.882;2023-04-02T17:14:03;100858.69;;;5.00;78.46
70302;BME280;57706;56.326;43.882;2023-04-02T17:16:43;100855.63;;;4.94;78.43
70302;BME280;57706;56.326;43.882;2023-04-02T17:19:12;100857.63;;;4.91;78.67
70302;BME280;57706;56.326;43.882;2023-04-02T17:21:43;100854.28;;;4.89;78.60
70302;BME280;57706;56.326;43.882;2023-04-02T17:24:20;100851.31;;;4.93;78.75
70302;BME280;57706;56.326;43.882;2023-04-02T17:26:53;100862.09;;;4.89;78.87
70302;BME280;57706;56.326;43.882;2023-04-02T17:29:38;100859.63;;;4.87;79.04
70302;BME280;57706;56.326;43.882;2023-04-02T17:32:15;100852.97;;;4.83;79.04
70302;BME280;57706;56.326;43.882;2023-04-02T17:34:44;100854.25;;;4.77;78.86
70302;BME280;57706;56.326;43.882;2023-04-02T17:37:29;100862.41;;;4.73;79.25
70302;BME280;57706;56.326;43.882;2023-04-02T17:40:19;100859.28;;;4.67;79.59